| time (UTC) | temp F | wind direction | speed MPH | gust MPH | rain 1hr in | rain 24hr in | rain mn in | humidity % | barometer mb |
| 20260509043053 | 54 | 144 | 0.0 | 3.0 | 0.03 | 0.39 | 0.01 | 57 | 1008.9 |
| 20260509041541 | 54 | 238 | 0.0 | 7.0 | 0.02 | 0.38 | 0.00 | 56 | 1009.0 |
| 20260509040040 | 54 | 136 | 0.0 | 4.0 | 0.03 | 0.38 | 0.00 | 56 | 1009.0 |
| 20260509034547 | 54 | 91 | 0.0 | 5.0 | 0.04 | 0.38 | 0.38 | 55 | 1009.0 |
| 20260509033037 | 54 | 103 | 0.0 | 2.0 | 0.03 | 0.36 | 0.36 | 55 | 1009.0 |
| 20260509031534 | 54 | 148 | 0.0 | 1.0 | 0.05 | 0.36 | 0.36 | 55 | 1009.2 |
| 20260509030033 | 55 | 276 | 0.0 | 4.0 | 0.06 | 0.35 | 0.35 | 55 | 1009.4 |
| 20260509024535 | 55 | 108 | 2.0 | 9.0 | 0.06 | 0.34 | 0.34 | 54 | 1009.4 |
| 20260509023034 | 55 | 193 | 1.0 | 6.0 | 0.06 | 0.33 | 0.33 | 54 | 1009.6 |
| 20260509021532 | 55 | 105 | 3.0 | 9.0 | 0.05 | 0.31 | 0.31 | 55 | 1009.7 |
| 20260509020031 | 55 | 6 | 1.0 | 6.0 | 0.05 | 0.28 | 0.28 | 56 | 1009.5 |
| 20260509014531 | 55 | 98 | 1.0 | 8.0 | 0.04 | 0.28 | 0.28 | 56 | 1009.3 |
| 20260509013031 | 55 | 131 | 1.0 | 6.0 | 0.05 | 0.27 | 0.27 | 56 | 1009.3 |
| 20260509011530 | 55 | 84 | 1.0 | 4.0 | 0.06 | 0.26 | 0.26 | 56 | 1009.3 |
| 20260509010033 | 55 | 105 | 1.0 | 3.0 | 0.05 | 0.24 | 0.24 | 56 | 1009.1 |
| 20260509004535 | 55 | 129 | 0.0 | 0.0 | 0.06 | 0.24 | 0.24 | 55 | 1009.1 |
| 20260509003029 | 55 | 104 | 0.0 | 4.0 | 0.05 | 0.22 | 0.22 | 54 | 1009.2 |
| 20260509001532 | 55 | 108 | 0.0 | 3.0 | 0.08 | 0.20 | 0.20 | 54 | 1009.5 |
| 20260509000027 | 55 | 88 | 0.0 | 2.0 | 0.08 | 0.18 | 0.18 | 53 | 1009.7 |
| 20260508234528 | 55 | 100 | 0.0 | 0.0 | 0.10 | 0.18 | 0.18 | 52 | 1009.4 |
| 20260508233027 | 55 | 254 | 0.0 | 3.0 | 0.12 | 0.17 | 0.17 | 52 | 1009.2 |
| 20260508231525 | 55 | 160 | 0.0 | 0.0 | 0.08 | 0.12 | 0.12 | 52 | 1009.8 |
| 20260508230024 | 55 | 160 | 0.0 | 0.0 | 0.08 | 0.10 | 0.10 | 53 | 1009.6 |
| 20260508224531 | 55 | 160 | 0.0 | 0.0 | 0.07 | 0.08 | 0.08 | 55 | 1009.8 |
| 20260508223040 | 55 | 160 | 0.0 | 0.0 | 0.05 | 0.05 | 0.05 | 56 | 1009.9 |
| 20260508221524 | 56 | 160 | 0.0 | 2.0 | 0.04 | 0.04 | 0.04 | 58 | 1009.9 |
| 20260508220027 | 56 | 160 | 0.0 | 1.0 | 0.02 | 0.02 | 0.02 | 61 | 1009.8 |
| 20260508214539 | 58 | 150 | 1.0 | 6.0 | 0.01 | 0.01 | 0.01 | 62 | 1009.8 |
| 20260508213020 | 61 | 103 | 2.0 | 8.0 | 0.00 | 0.00 | 0.00 | 52 | 1009.3 |
| 20260508211519 | 62 | 11 | 1.0 | 9.0 | 0.00 | 0.00 | 0.00 | 48 | 1009.0 |
| 20260508210018 | 63 | 113 | 0.0 | 3.0 | 0.00 | 0.00 | 0.00 | 47 | 1008.9 |
| 20260508204518 | 64 | 113 | 1.0 | 4.0 | 0.00 | 0.00 | 0.00 | 45 | 1008.9 |
| 20260508203018 | 64 | 128 | 0.0 | 2.0 | 0.00 | 0.00 | 0.00 | 44 | 1009.1 |
| 20260508201514 | 64 | 115 | 1.0 | 4.0 | 0.00 | 0.00 | 0.00 | 45 | 1009.4 |
| 20260508200019 | 63 | 108 | 0.0 | 4.0 | 0.00 | 0.00 | 0.00 | 45 | 1009.7 |
| 20260508194510 | 63 | 96 | 1.0 | 5.0 | 0.00 | 0.00 | 0.00 | 43 | 1009.8 |
| 20260508193122 | 63 | 110 | 0.0 | 5.0 | 0.00 | 0.00 | 0.00 | 45 | 1010.2 |
| 20260508191506 | 63 | 97 | 2.0 | 6.0 | 0.00 | 0.00 | 0.00 | 44 | 1010.4 |
| 20260508190012 | 63 | 96 | 2.0 | 5.0 | 0.00 | 0.00 | 0.00 | 43 | 1010.7 |
| 20260508184509 | 63 | 108 | 3.0 | 8.0 | 0.00 | 0.00 | 0.00 | 41 | 1010.8 |
| 20260508183002 | 63 | 108 | 2.0 | 11.0 | 0.00 | 0.00 | 0.00 | 41 | 1010.7 |
| 20260508181501 | 63 | 82 | 3.0 | 9.0 | 0.00 | 0.00 | 0.00 | 41 | 1010.9 |
| 20260508180114 | 63 | 128 | 5.0 | 14.0 | 0.00 | 0.00 | 0.00 | 40 | 1010.9 |
| 20260508174613 | 64 | 110 | 3.0 | 19.0 | 0.00 | 0.00 | 0.00 | 39 | 1011.0 |
| 20260508173059 | 65 | 108 | 5.0 | 13.0 | 0.00 | 0.00 | 0.00 | 37 | 1011.1 |
| 20260508171559 | 66 | 22 | 4.0 | 13.0 | 0.00 | 0.00 | 0.00 | 38 | 1011.3 |
| 20260508170059 | 66 | 99 | 2.0 | 12.0 | 0.00 | 0.00 | 0.00 | 42 | 1011.7 |
| 20260508164552 | 64 | 106 | 4.0 | 14.0 | 0.00 | 0.00 | 0.00 | 39 | 1012.1 |
| 20260508163047 | 64 | 101 | 4.0 | 12.0 | 0.00 | 0.00 | 0.00 | 40 | 1012.3 |
| 20260508161545 | 63 | 302 | 1.0 | 13.0 | 0.00 | 0.00 | 0.00 | 41 | 1012.5 |
| 20260508160042 | 63 | 80 | 4.0 | 12.0 | 0.00 | 0.00 | 0.00 | 40 | 1012.5 |
| 20260508154541 | 62 | 113 | 2.0 | 8.0 | 0.00 | 0.00 | 0.00 | 42 | 1012.7 |
| 20260508153046 | 63 | 105 | 4.0 | 10.0 | 0.00 | 0.00 | 0.00 | 41 | 1012.7 |
| 20260508151538 | 62 | 108 | 6.0 | 14.0 | 0.00 | 0.00 | 0.00 | 40 | 1012.7 |
| 20260508150037 | 62 | 43 | 6.0 | 17.0 | 0.00 | 0.00 | 0.00 | 40 | 1012.8 |
| 20260508144538 | 62 | 117 | 3.0 | 9.0 | 0.00 | 0.00 | 0.00 | 42 | 1013.0 |
| 20260508143035 | 61 | 90 | 4.0 | 13.0 | 0.00 | 0.00 | 0.00 | 42 | 1013.1 |
| 20260508141535 | 61 | 68 | 4.0 | 12.0 | 0.00 | 0.00 | 0.00 | 41 | 1013.2 |
| 20260508140027 | 59 | 72 | 5.0 | 12.0 | 0.00 | 0.00 | 0.00 | 43 | 1013.5 |
| 20260508134530 | 58 | 102 | 4.0 | 10.0 | 0.00 | 0.00 | 0.00 | 42 | 1013.6 |
| 20260508133025 | 58 | 84 | 2.0 | 8.0 | 0.00 | 0.00 | 0.00 | 43 | 1013.8 |
| 20260508131521 | 57 | 107 | 3.0 | 10.0 | 0.00 | 0.00 | 0.00 | 44 | 1013.9 |
| 20260508130030 | 56 | 68 | 0.0 | 5.0 | 0.00 | 0.00 | 0.00 | 47 | 1013.7 |
| 20260508124514 | 55 | 158 | 1.0 | 4.0 | 0.00 | 0.00 | 0.00 | 47 | 1013.6 |
| 20260508123015 | 52 | 143 | 0.0 | 3.0 | 0.00 | 0.00 | 0.00 | 52 | 1013.9 |
| 20260508121510 | 50 | 110 | 1.0 | 4.0 | 0.00 | 0.00 | 0.00 | 52 | 1013.8 |
| 20260508120009 | 49 | 155 | 0.0 | 2.0 | 0.00 | 0.00 | 0.00 | 55 | 1013.8 |
| 20260508114508 | 48 | 155 | 0.0 | 1.0 | 0.00 | 0.00 | 0.00 | 56 | 1013.6 |
| 20260508113008 | 49 | 155 | 1.0 | 4.0 | 0.00 | 0.00 | 0.00 | 54 | 1013.7 |
| 20260508111507 | 49 | 122 | 0.0 | 3.0 | 0.00 | 0.00 | 0.00 | 53 | 1013.3 |
| 20260508110004 | 49 | 127 | 0.0 | 1.0 | 0.00 | 0.00 | 0.00 | 53 | 1013.2 |
| 20260508104502 | 49 | 104 | 0.0 | 2.0 | 0.00 | 0.00 | 0.00 | 52 | 1013.2 |
| 20260508103001 | 49 | 139 | 0.0 | 1.0 | 0.00 | 0.00 | 0.00 | 52 | 1013.1 |
| 20260508101601 | 50 | 79 | 1.0 | 6.0 | 0.00 | 0.00 | 0.00 | 50 | 1013.1 |
| 20260508100059 | 50 | 102 | 0.0 | 5.0 | 0.00 | 0.00 | 0.00 | 51 | 1013.1 |
| 20260508094558 | 50 | 119 | 0.0 | 2.0 | 0.00 | 0.00 | 0.00 | 50 | 1013.2 |
| 20260508093105 | 51 | 112 | 1.0 | 4.0 | 0.00 | 0.00 | 0.00 | 48 | 1013.2 |
| 20260508091558 | 51 | 91 | 0.0 | 2.0 | 0.00 | 0.00 | 0.00 | 49 | 1013.2 |
| 20260508084558 | 52 | 106 | 1.0 | 3.0 | 0.00 | 0.00 | 0.00 | 48 | 1013.5 |
| 20260508083055 | 51 | 108 | 0.0 | 2.0 | 0.00 | 0.00 | 0.00 | 49 | 1013.6 |
| 20260508081600 | 52 | 101 | 2.0 | 4.0 | 0.00 | 0.00 | 0.00 | 48 | 1013.7 |
| 20260508080052 | 52 | 97 | 1.0 | 6.0 | 0.00 | 0.00 | 0.00 | 46 | 1013.7 |
| 20260508074551 | 52 | 79 | 1.0 | 6.0 | 0.00 | 0.00 | 0.00 | 46 | 1013.6 |
| 20260508073051 | 52 | 105 | 2.0 | 8.0 | 0.00 | 0.00 | 0.00 | 46 | 1013.7 |
| 20260508071549 | 52 | 70 | 2.0 | 6.0 | 0.00 | 0.00 | 0.00 | 46 | 1013.5 |
| 20260508070046 | 52 | 82 | 2.0 | 7.0 | 0.00 | 0.00 | 0.00 | 45 | 1013.7 |
| 20260508064544 | 52 | 103 | 2.0 | 7.0 | 0.00 | 0.00 | 0.00 | 46 | 1014.0 |
| 20260508063057 | 52 | 98 | 1.0 | 6.0 | 0.00 | 0.00 | 0.00 | 46 | 1014.0 |
| 20260508061542 | 52 | 123 | 0.0 | 5.0 | 0.00 | 0.00 | 0.00 | 47 | 1013.9 |
| 20260508060038 | 51 | 98 | 2.0 | 6.0 | 0.00 | 0.00 | 0.00 | 47 | 1014.0 |
| 20260508054537 | 51 | 123 | 0.0 | 2.0 | 0.00 | 0.00 | 0.00 | 49 | 1014.2 |
| 20260508053035 | 50 | 96 | 0.0 | 4.0 | 0.00 | 0.00 | 0.00 | 50 | 1014.0 |
| 20260508051537 | 50 | 119 | 0.0 | 4.0 | 0.00 | 0.00 | 0.00 | 50 | 1014.2 |
| 20260508050036 | 50 | 119 | 0.0 | 2.0 | 0.00 | 0.00 | 0.00 | 52 | 1014.0 |
| 20260508044530 | 49 | 103 | 0.0 | 2.0 | 0.00 | 0.00 | 0.00 | 53 | 1014.2 |